sensor_id;sensor_type;location;lat;lon;timestamp;P1;durP1;ratioP1;P2;durP2;ratioP2
42096;SDS011;27754;45.414;11.084;2023-06-01T00:02:01;12.65;;;5.70;;
42096;SDS011;27754;45.414;11.084;2023-06-01T00:04:28;7.63;;;5.40;;
42096;SDS011;27754;45.414;11.084;2023-06-01T00:06:55;14.30;;;6.57;;
42096;SDS011;27754;45.414;11.084;2023-06-01T00:09:22;10.90;;;5.50;;
42096;SDS011;27754;45.414;11.084;2023-06-01T00:11:49;9.27;;;5.88;;
42096;SDS011;27754;45.414;11.084;2023-06-01T00:14:16;9.63;;;5.60;;
42096;SDS011;27754;45.414;11.084;2023-06-01T00:16:43;9.25;;;5.70;;
42096;SDS011;27754;45.414;11.084;2023-06-01T00:19:11;9.30;;;5.78;;
42096;SDS011;27754;45.414;11.084;2023-06-01T00:21:38;10.07;;;6.18;;
42096;SDS011;27754;45.414;11.084;2023-06-01T00:24:05;9.23;;;5.75;;
42096;SDS011;27754;45.414;11.084;2023-06-01T00:26:32;8.02;;;5.78;;
42096;SDS011;27754;45.414;11.084;2023-06-01T00:28:59;8.23;;;5.57;;
42096;SDS011;27754;45.414;11.084;2023-06-01T00:31:26;10.75;;;5.43;;
42096;SDS011;27754;45.414;11.084;2023-06-01T00:33:54;9.70;;;5.20;;
42096;SDS011;27754;45.414;11.084;2023-06-01T00:36:21;9.13;;;5.25;;
42096;SDS011;27754;45.414;11.084;2023-06-01T00:38:48;10.93;;;5.82;;
42096;SDS011;27754;45.414;11.084;2023-06-01T00:41:15;11.32;;;5.90;;
42096;SDS011;27754;45.414;11.084;2023-06-01T00:43:42;9.15;;;5.68;;
42096;SDS011;27754;45.414;11.084;2023-06-01T00:46:09;8.32;;;5.38;;
42096;SDS011;27754;45.414;11.084;2023-06-01T00:48:36;7.65;;;5.35;;
42096;SDS011;27754;45.414;11.084;2023-06-01T00:51:03;10.95;;;5.82;;
42096;SDS011;27754;45.414;11.084;2023-06-01T00:53:30;9.23;;;5.60;;
42096;SDS011;27754;45.414;11.084;2023-06-01T00:55:57;7.72;;;5.70;;
42096;SDS011;27754;45.414;11.084;2023-06-01T00:58:24;8.48;;;5.90;;
42096;SDS011;27754;45.414;11.084;2023-06-01T01:00:52;10.20;;;6.05;;
42096;SDS011;27754;45.414;11.084;2023-06-01T01:03:20;8.38;;;5.43;;
42096;SDS011;27754;45.414;11.084;2023-06-01T01:05:48;12.80;;;5.88;;
42096;SDS011;27754;45.414;11.084;2023-06-01T01:16:37;9.02;;;5.82;;
42096;SDS011;27754;45.414;11.084;2023-06-01T01:19:29;11.43;;;6.22;;
42096;SDS011;27754;45.414;11.084;2023-06-01T01:22:03;8.10;;;5.63;;
42096;SDS011;27754;45.414;11.084;2023-06-01T01:24:49;11.88;;;6.53;;
42096;SDS011;27754;45.414;11.084;2023-06-01T01:29:59;7.38;;;5.45;;
42096;SDS011;27754;45.414;11.084;2023-06-01T01:32:32;10.40;;;5.70;;
42096;SDS011;27754;45.414;11.084;2023-06-01T01:35:02;12.68;;;5.78;;
42096;SDS011;27754;45.414;11.084;2023-06-01T01:37:34;10.90;;;6.18;;
42096;SDS011;27754;45.414;11.084;2023-06-01T01:40:01;8.20;;;6.00;;
42096;SDS011;27754;45.414;11.084;2023-06-01T01:42:28;9.18;;;6.05;;
42096;SDS011;27754;45.414;11.084;2023-06-01T01:44:55;9.48;;;6.15;;
42096;SDS011;27754;45.414;11.084;2023-06-01T01:50:08;7.95;;;5.60;;
42096;SDS011;27754;45.414;11.084;2023-06-01T01:52:41;11.52;;;6.15;;
42096;SDS011;27754;45.414;11.084;2023-06-01T01:55:09;11.07;;;5.80;;
42096;SDS011;27754;45.414;11.084;2023-06-01T01:57:38;10.93;;;6.20;;
42096;SDS011;27754;45.414;11.084;2023-06-01T02:00:07;8.02;;;5.53;;
42096;SDS011;27754;45.414;11.084;2023-06-01T02:02:41;11.13;;;5.93;;
42096;SDS011;27754;45.414;11.084;2023-06-01T02:05:12;10.90;;;6.25;;
42096;SDS011;27754;45.414;11.084;2023-06-01T02:07:39;10.38;;;6.10;;
42096;SDS011;27754;45.414;11.084;2023-06-01T02:10:06;14.75;;;6.38;;
42096;SDS011;27754;45.414;11.084;2023-06-01T02:12:33;13.43;;;6.45;;
42096;SDS011;27754;45.414;11.084;2023-06-01T02:15:01;14.05;;;6.65;;
42096;SDS011;27754;45.414;11.084;2023-06-01T02:17:28;7.80;;;5.75;;
42096;SDS011;27754;45.414;11.084;2023-06-01T02:19:55;11.10;;;6.85;;
42096;SDS011;27754;45.414;11.084;2023-06-01T02:22:22;10.32;;;6.30;;
42096;SDS011;27754;45.414;11.084;2023-06-01T02:24:49;11.55;;;7.07;;
42096;SDS011;27754;45.414;11.084;2023-06-01T02:27:16;9.60;;;6.50;;
42096;SDS011;27754;45.414;11.084;2023-06-01T02:29:42;9.60;;;6.63;;
42096;SDS011;27754;45.414;11.084;2023-06-01T02:32:10;8.90;;;6.75;;
42096;SDS011;27754;45.414;11.084;2023-06-01T02:34:38;7.75;;;6.25;;
42096;SDS011;27754;45.414;11.084;2023-06-01T02:37:05;12.48;;;6.43;;
42096;SDS011;27754;45.414;11.084;2023-06-01T02:39:33;10.98;;;6.55;;
42096;SDS011;27754;45.414;11.084;2023-06-01T02:42:01;10.45;;;6.90;;
42096;SDS011;27754;45.414;11.084;2023-06-01T02:44:28;10.13;;;6.80;;
42096;SDS011;27754;45.414;11.084;2023-06-01T02:46:54;13.05;;;6.85;;
42096;SDS011;27754;45.414;11.084;2023-06-01T02:49:21;10.80;;;7.07;;
42096;SDS011;27754;45.414;11.084;2023-06-01T02:51:48;10.52;;;6.70;;
42096;SDS011;27754;45.414;11.084;2023-06-01T02:54:21;11.88;;;6.50;;
42096;SDS011;27754;45.414;11.084;2023-06-01T02:56:49;10.38;;;6.70;;
42096;SDS011;27754;45.414;11.084;2023-06-01T03:02:12;16.42;;;8.85;;
42096;SDS011;27754;45.414;11.084;2023-06-01T03:04:39;14.65;;;7.28;;
42096;SDS011;27754;45.414;11.084;2023-06-01T03:07:06;13.35;;;7.40;;
42096;SDS011;27754;45.414;11.084;2023-06-01T03:09:36;11.27;;;6.55;;
42096;SDS011;27754;45.414;11.084;2023-06-01T03:12:21;20.20;;;7.60;;
42096;SDS011;27754;45.414;11.084;2023-06-01T03:14:48;10.30;;;7.28;;
42096;SDS011;27754;45.414;11.084;2023-06-01T03:17:16;13.38;;;7.78;;
42096;SDS011;27754;45.414;11.084;2023-06-01T03:19:43;9.80;;;7.03;;
42096;SDS011;27754;45.414;11.084;2023-06-01T03:22:18;10.30;;;7.60;;
42096;SDS011;27754;45.414;11.084;2023-06-01T03:24:45;10.60;;;6.95;;
42096;SDS011;27754;45.414;11.084;2023-06-01T03:27:19;10.45;;;7.53;;
42096;SDS011;27754;45.414;11.084;2023-06-01T03:29:46;13.00;;;8.10;;
42096;SDS011;27754;45.414;11.084;2023-06-01T03:32:13;10.80;;;7.18;;
42096;SDS011;27754;45.414;11.084;2023-06-01T03:34:41;12.75;;;7.43;;
42096;SDS011;27754;45.414;11.084;2023-06-01T03:37:08;11.38;;;7.53;;
42096;SDS011;27754;45.414;11.084;2023-06-01T03:39:35;11.60;;;7.30;;
42096;SDS011;27754;45.414;11.084;2023-06-01T03:42:05;13.60;;;7.78;;
42096;SDS011;27754;45.414;11.084;2023-06-01T03:44:34;14.25;;;6.82;;
42096;SDS011;27754;45.414;11.084;2023-06-01T03:47:02;10.27;;;7.22;;
42096;SDS011;27754;45.414;11.084;2023-06-01T03:49:29;11.55;;;7.03;;
42096;SDS011;27754;45.414;11.084;2023-06-01T03:51:57;11.35;;;7.03;;
42096;SDS011;27754;45.414;11.084;2023-06-01T03:54:24;11.52;;;7.20;;
42096;SDS011;27754;45.414;11.084;2023-06-01T03:56:51;10.77;;;6.35;;
42096;SDS011;27754;45.414;11.084;2023-06-01T03:59:18;11.10;;;6.53;;
42096;SDS011;27754;45.414;11.084;2023-06-01T04:01:45;11.52;;;6.88;;
42096;SDS011;27754;45.414;11.084;2023-06-01T04:04:15;9.25;;;6.60;;
42096;SDS011;27754;45.414;11.084;2023-06-01T04:06:44;11.60;;;6.93;;
42096;SDS011;27754;45.414;11.084;2023-06-01T04:09:13;12.45;;;7.53;;
42096;SDS011;27754;45.414;11.084;2023-06-01T04:11:42;11.65;;;6.25;;
42096;SDS011;27754;45.414;11.084;2023-06-01T04:14:09;11.25;;;7.43;;
42096;SDS011;27754;45.414;11.084;2023-06-01T04:16:36;11.98;;;7.63;;
42096;SDS011;27754;45.414;11.084;2023-06-01T04:19:03;12.25;;;7.68;;
42096;SDS011;27754;45.414;11.084;2023-06-01T04:21:31;10.13;;;7.75;;
42096;SDS011;27754;45.414;11.084;2023-06-01T04:23:59;10.40;;;7.05;;
42096;SDS011;27754;45.414;11.084;2023-06-01T04:26:26;10.25;;;7.57;;
42096;SDS011;27754;45.414;11.084;2023-06-01T04:28:54;14.50;;;7.93;;
42096;SDS011;27754;45.414;11.084;2023-06-01T04:31:23;9.80;;;7.03;;
42096;SDS011;27754;45.414;11.084;2023-06-01T04:33:50;10.68;;;7.55;;
42096;SDS011;27754;45.414;11.084;2023-06-01T04:36:23;16.15;;;7.38;;
42096;SDS011;27754;45.414;11.084;2023-06-01T04:38:56;32.92;;;8.15;;
42096;SDS011;27754;45.414;11.084;2023-06-01T04:41:24;21.73;;;7.18;;
42096;SDS011;27754;45.414;11.084;2023-06-01T04:43:51;21.13;;;7.30;;
42096;SDS011;27754;45.414;11.084;2023-06-01T04:46:20;14.10;;;6.93;;
42096;SDS011;27754;45.414;11.084;2023-06-01T04:48:50;9.80;;;6.47;;
42096;SDS011;27754;45.414;11.084;2023-06-01T04:51:21;13.23;;;7.25;;
42096;SDS011;27754;45.414;11.084;2023-06-01T04:53:51;19.08;;;7.38;;
42096;SDS011;27754;45.414;11.084;2023-06-01T04:56:19;21.05;;;7.30;;
42096;SDS011;27754;45.414;11.084;2023-06-01T04:58:51;15.88;;;6.53;;
42096;SDS011;27754;45.414;11.084;2023-06-01T05:01:18;12.10;;;6.40;;
42096;SDS011;27754;45.414;11.084;2023-06-01T05:03:52;15.90;;;6.38;;
42096;SDS011;27754;45.414;11.084;2023-06-01T05:06:22;19.83;;;7.00;;
42096;SDS011;27754;45.414;11.084;2023-06-01T05:08:51;25.00;;;7.43;;
42096;SDS011;27754;45.414;11.084;2023-06-01T05:11:18;27.27;;;7.15;;
42096;SDS011;27754;45.414;11.084;2023-06-01T05:13:45;23.02;;;7.40;;
42096;SDS011;27754;45.414;11.084;2023-06-01T05:16:12;23.02;;;7.93;;
42096;SDS011;27754;45.414;11.084;2023-06-01T05:18:39;15.05;;;7.28;;
42096;SDS011;27754;45.414;11.084;2023-06-01T05:21:07;13.00;;;7.20;;
42096;SDS011;27754;45.414;11.084;2023-06-01T05:23:34;13.32;;;6.78;;
42096;SDS011;27754;45.414;11.084;2023-06-01T05:26:01;12.60;;;7.15;;
42096;SDS011;27754;45.414;11.084;2023-06-01T05:28:33;15.80;;;7.32;;
42096;SDS011;27754;45.414;11.084;2023-06-01T05:31:04;25.20;;;7.47;;
42096;SDS011;27754;45.414;11.084;2023-06-01T05:33:36;28.45;;;7.72;;
42096;SDS011;27754;45.414;11.084;2023-06-01T05:36:03;20.38;;;7.15;;
42096;SDS011;27754;45.414;11.084;2023-06-01T05:38:31;16.60;;;7.90;;
42096;SDS011;27754;45.414;11.084;2023-06-01T05:40:58;19.70;;;8.23;;
42096;SDS011;27754;45.414;11.084;2023-06-01T05:43:26;29.15;;;8.70;;
42096;SDS011;27754;45.414;11.084;2023-06-01T05:45:53;22.23;;;7.88;;
42096;SDS011;27754;45.414;11.084;2023-06-01T05:48:20;20.58;;;8.43;;
42096;SDS011;27754;45.414;11.084;2023-06-01T05:50:51;28.48;;;8.80;;
42096;SDS011;27754;45.414;11.084;2023-06-01T05:53:18;20.67;;;8.02;;
42096;SDS011;27754;45.414;11.084;2023-06-01T05:55:45;26.67;;;7.88;;
42096;SDS011;27754;45.414;11.084;2023-06-01T05:58:12;21.75;;;8.13;;
42096;SDS011;27754;45.414;11.084;2023-06-01T06:00:39;21.15;;;8.60;;
42096;SDS011;27754;45.414;11.084;2023-06-01T06:03:06;16.25;;;7.50;;
42096;SDS011;27754;45.414;11.084;2023-06-01T06:05:33;15.55;;;6.80;;
42096;SDS011;27754;45.414;11.084;2023-06-01T06:08:00;16.58;;;7.28;;
42096;SDS011;27754;45.414;11.084;2023-06-01T06:10:27;14.82;;;6.15;;
42096;SDS011;27754;45.414;11.084;2023-06-01T06:12:54;9.45;;;6.00;;
42096;SDS011;27754;45.414;11.084;2023-06-01T06:15:21;14.82;;;7.57;;
42096;SDS011;27754;45.414;11.084;2023-06-01T06:17:48;10.63;;;5.32;;
42096;SDS011;27754;45.414;11.084;2023-06-01T06:20:16;9.05;;;6.20;;
42096;SDS011;27754;45.414;11.084;2023-06-01T06:22:43;10.45;;;6.60;;
42096;SDS011;27754;45.414;11.084;2023-06-01T06:25:10;10.13;;;6.03;;
42096;SDS011;27754;45.414;11.084;2023-06-01T06:27:38;18.77;;;5.90;;
42096;SDS011;27754;45.414;11.084;2023-06-01T06:30:05;10.13;;;6.22;;
42096;SDS011;27754;45.414;11.084;2023-06-01T06:32:33;11.18;;;6.40;;
42096;SDS011;27754;45.414;11.084;2023-06-01T06:35:01;10.43;;;6.63;;
42096;SDS011;27754;45.414;11.084;2023-06-01T06:37:29;13.00;;;6.47;;
42096;SDS011;27754;45.414;11.084;2023-06-01T06:39:56;9.80;;;6.05;;
42096;SDS011;27754;45.414;11.084;2023-06-01T06:42:24;15.07;;;7.25;;
42096;SDS011;27754;45.414;11.084;2023-06-01T06:44:51;10.30;;;6.65;;
42096;SDS011;27754;45.414;11.084;2023-06-01T06:47:18;9.13;;;6.47;;
42096;SDS011;27754;45.414;11.084;2023-06-01T06:49:46;11.63;;;6.00;;
42096;SDS011;27754;45.414;11.084;2023-06-01T06:52:13;10.13;;;6.25;;
42096;SDS011;27754;45.414;11.084;2023-06-01T06:54:40;13.40;;;6.55;;
42096;SDS011;27754;45.414;11.084;2023-06-01T06:57:07;15.57;;;6.13;;
42096;SDS011;27754;45.414;11.084;2023-06-01T06:59:35;9.30;;;6.35;;
42096;SDS011;27754;45.414;11.084;2023-06-01T07:02:02;14.75;;;6.22;;
42096;SDS011;27754;45.414;11.084;2023-06-01T07:04:30;9.80;;;5.30;;
42096;SDS011;27754;45.414;11.084;2023-06-01T07:06:56;11.20;;;5.53;;
42096;SDS011;27754;45.414;11.084;2023-06-01T07:09:23;13.80;;;6.18;;
42096;SDS011;27754;45.414;11.084;2023-06-01T07:11:50;9.75;;;5.70;;
42096;SDS011;27754;45.414;11.084;2023-06-01T07:14:17;9.32;;;6.05;;
42096;SDS011;27754;45.414;11.084;2023-06-01T07:16:44;9.68;;;5.22;;
42096;SDS011;27754;45.414;11.084;2023-06-01T07:19:12;9.65;;;6.03;;
42096;SDS011;27754;45.414;11.084;2023-06-01T07:21:39;8.90;;;5.78;;
42096;SDS011;27754;45.414;11.084;2023-06-01T07:24:06;7.90;;;5.47;;
42096;SDS011;27754;45.414;11.084;2023-06-01T07:26:34;10.52;;;5.30;;
42096;SDS011;27754;45.414;11.084;2023-06-01T07:29:02;9.02;;;4.97;;
42096;SDS011;27754;45.414;11.084;2023-06-01T07:31:29;8.65;;;5.68;;
42096;SDS011;27754;45.414;11.084;2023-06-01T07:33:58;7.68;;;5.13;;
42096;SDS011;27754;45.414;11.084;2023-06-01T07:36:25;10.60;;;6.28;;
42096;SDS011;27754;45.414;11.084;2023-06-01T07:38:52;10.18;;;5.50;;
42096;SDS011;27754;45.414;11.084;2023-06-01T07:41:19;10.63;;;5.78;;
42096;SDS011;27754;45.414;11.084;2023-06-01T07:43:46;7.25;;;5.78;;
42096;SDS011;27754;45.414;11.084;2023-06-01T07:46:13;10.77;;;6.07;;
42096;SDS011;27754;45.414;11.084;2023-06-01T07:48:40;8.05;;;5.45;;
42096;SDS011;27754;45.414;11.084;2023-06-01T07:51:07;8.85;;;5.53;;
42096;SDS011;27754;45.414;11.084;2023-06-01T07:53:34;9.23;;;5.47;;
42096;SDS011;27754;45.414;11.084;2023-06-01T07:56:01;10.93;;;5.70;;
42096;SDS011;27754;45.414;11.084;2023-06-01T07:58:29;8.85;;;5.55;;
42096;SDS011;27754;45.414;11.084;2023-06-01T08:00:56;8.75;;;5.60;;
42096;SDS011;27754;45.414;11.084;2023-06-01T08:03:23;11.70;;;5.28;;
42096;SDS011;27754;45.414;11.084;2023-06-01T08:05:52;9.95;;;5.55;;
42096;SDS011;27754;45.414;11.084;2023-06-01T08:08:26;10.40;;;6.03;;
42096;SDS011;27754;45.414;11.084;2023-06-01T08:10:53;8.80;;;5.70;;
42096;SDS011;27754;45.414;11.084;2023-06-01T08:13:20;9.38;;;5.85;;
42096;SDS011;27754;45.414;11.084;2023-06-01T08:15:47;11.68;;;5.65;;
42096;SDS011;27754;45.414;11.084;2023-06-01T08:18:14;11.43;;;6.13;;
42096;SDS011;27754;45.414;11.084;2023-06-01T08:20:41;9.05;;;6.35;;
42096;SDS011;27754;45.414;11.084;2023-06-01T08:23:10;8.40;;;5.55;;
42096;SDS011;27754;45.414;11.084;2023-06-01T08:25:37;11.98;;;5.75;;
42096;SDS011;27754;45.414;11.084;2023-06-01T08:28:04;8.02;;;5.68;;
42096;SDS011;27754;45.414;11.084;2023-06-01T08:30:31;10.52;;;6.18;;
42096;SDS011;27754;45.414;11.084;2023-06-01T08:32:58;12.02;;;5.65;;
42096;SDS011;27754;45.414;11.084;2023-06-01T08:35:25;10.77;;;5.75;;
42096;SDS011;27754;45.414;11.084;2023-06-01T08:37:52;9.20;;;5.93;;
42096;SDS011;27754;45.414;11.084;2023-06-01T08:40:19;10.23;;;5.65;;
42096;SDS011;27754;45.414;11.084;2023-06-01T08:43:02;12.80;;;6.07;;
42096;SDS011;27754;45.414;11.084;2023-06-01T08:45:37;12.52;;;6.28;;
42096;SDS011;27754;45.414;11.084;2023-06-01T08:48:05;8.88;;;5.75;;
42096;SDS011;27754;45.414;11.084;2023-06-01T08:50:35;12.38;;;6.40;;
42096;SDS011;27754;45.414;11.084;2023-06-01T08:53:03;11.23;;;7.05;;
42096;SDS011;27754;45.414;11.084;2023-06-01T08:55:31;13.60;;;6.15;;
42096;SDS011;27754;45.414;11.084;2023-06-01T08:57:59;8.80;;;5.90;;
42096;SDS011;27754;45.414;11.084;2023-06-01T09:00:27;10.13;;;6.10;;
42096;SDS011;27754;45.414;11.084;2023-06-01T09:02:55;10.85;;;6.13;;
42096;SDS011;27754;45.414;11.084;2023-06-01T09:05:22;8.45;;;6.40;;
42096;SDS011;27754;45.414;11.084;2023-06-01T09:07:49;11.77;;;6.25;;
42096;SDS011;27754;45.414;11.084;2023-06-01T09:10:23;8.77;;;5.95;;
42096;SDS011;27754;45.414;11.084;2023-06-01T09:12:54;9.85;;;6.22;;
42096;SDS011;27754;45.414;11.084;2023-06-01T09:15:21;12.55;;;6.57;;
42096;SDS011;27754;45.414;11.084;2023-06-01T09:17:50;8.13;;;5.80;;
42096;SDS011;27754;45.414;11.084;2023-06-01T09:20:25;10.13;;;6.85;;
42096;SDS011;27754;45.414;11.084;2023-06-01T09:22:53;8.75;;;6.03;;
42096;SDS011;27754;45.414;11.084;2023-06-01T09:25:38;10.63;;;5.85;;
42096;SDS011;27754;45.414;11.084;2023-06-01T09:28:06;9.80;;;6.85;;
42096;SDS011;27754;45.414;11.084;2023-06-01T09:30:42;9.15;;;6.30;;
42096;SDS011;27754;45.414;11.084;2023-06-01T09:33:12;11.57;;;6.07;;
42096;SDS011;27754;45.414;11.084;2023-06-01T09:38:22;10.35;;;5.82;;
42096;SDS011;27754;45.414;11.084;2023-06-01T09:41:03;13.30;;;6.80;;
42096;SDS011;27754;45.414;11.084;2023-06-01T09:43:33;11.73;;;6.40;;
42096;SDS011;27754;45.414;11.084;2023-06-01T09:46:07;9.70;;;6.05;;
42096;SDS011;27754;45.414;11.084;2023-06-01T09:48:36;11.10;;;7.18;;
42096;SDS011;27754;45.414;11.084;2023-06-01T09:51:03;13.63;;;6.15;;
42096;SDS011;27754;45.414;11.084;2023-06-01T09:53:41;12.98;;;6.60;;
42096;SDS011;27754;45.414;11.084;2023-06-01T09:56:08;9.98;;;5.40;;
42096;SDS011;27754;45.414;11.084;2023-06-01T09:58:35;7.95;;;5.80;;
42096;SDS011;27754;45.414;11.084;2023-06-01T10:01:06;10.15;;;5.93;;
42096;SDS011;27754;45.414;11.084;2023-06-01T10:03:40;8.77;;;5.80;;
42096;SDS011;27754;45.414;11.084;2023-06-01T10:06:11;8.57;;;5.40;;
42096;SDS011;27754;45.414;11.084;2023-06-01T10:08:39;11.77;;;6.15;;
42096;SDS011;27754;45.414;11.084;2023-06-01T10:11:10;8.73;;;5.68;;
42096;SDS011;27754;45.414;11.084;2023-06-01T10:13:37;7.45;;;5.22;;
42096;SDS011;27754;45.414;11.084;2023-06-01T10:16:04;10.15;;;5.72;;
42096;SDS011;27754;45.414;11.084;2023-06-01T10:18:32;22.83;;;6.07;;
42096;SDS011;27754;45.414;11.084;2023-06-01T10:20:59;13.95;;;6.18;;
42096;SDS011;27754;45.414;11.084;2023-06-01T10:23:29;7.80;;;6.00;;
42096;SDS011;27754;45.414;11.084;2023-06-01T10:25:57;11.30;;;5.88;;
42096;SDS011;27754;45.414;11.084;2023-06-01T10:28:31;12.02;;;6.05;;
42096;SDS011;27754;45.414;11.084;2023-06-01T10:34:08;10.05;;;6.10;;
42096;SDS011;27754;45.414;11.084;2023-06-01T10:39:29;9.95;;;5.95;;
42096;SDS011;27754;45.414;11.084;2023-06-01T10:41:58;7.90;;;5.75;;
42096;SDS011;27754;45.414;11.084;2023-06-01T10:44:46;10.70;;;5.97;;
42096;SDS011;27754;45.414;11.084;2023-06-01T10:52:27;6.60;;;5.25;;
42096;SDS011;27754;45.414;11.084;2023-06-01T10:57:45;10.52;;;5.70;;
42096;SDS011;27754;45.414;11.084;2023-06-01T11:00:16;9.45;;;5.70;;
42096;SDS011;27754;45.414;11.084;2023-06-01T11:11:07;9.52;;;6.07;;
42096;SDS011;27754;45.414;11.084;2023-06-01T11:13:35;10.35;;;5.15;;
42096;SDS011;27754;45.414;11.084;2023-06-01T11:21:14;9.88;;;5.85;;
42096;SDS011;27754;45.414;11.084;2023-06-01T11:23:44;9.48;;;5.65;;
42096;SDS011;27754;45.414;11.084;2023-06-01T11:26:13;10.63;;;5.97;;
42096;SDS011;27754;45.414;11.084;2023-06-01T11:28:42;10.73;;;5.85;;
42096;SDS011;27754;45.414;11.084;2023-06-01T11:31:13;9.05;;;5.65;;
42096;SDS011;27754;45.414;11.084;2023-06-01T11:36:22;11.75;;;5.80;;
42096;SDS011;27754;45.414;11.084;2023-06-01T11:38:53;8.82;;;5.80;;
42096;SDS011;27754;45.414;11.084;2023-06-01T11:41:22;10.68;;;6.43;;
42096;SDS011;27754;45.414;11.084;2023-06-01T11:43:53;9.88;;;6.28;;
42096;SDS011;27754;45.414;11.084;2023-06-01T11:46:22;10.50;;;6.35;;
42096;SDS011;27754;45.414;11.084;2023-06-01T11:49:00;7.82;;;6.35;;
42096;SDS011;27754;45.414;11.084;2023-06-01T11:51:29;11.10;;;5.45;;
42096;SDS011;27754;45.414;11.084;2023-06-01T11:53:57;7.50;;;5.22;;
42096;SDS011;27754;45.414;11.084;2023-06-01T11:56:28;6.72;;;5.22;;
42096;SDS011;27754;45.414;11.084;2023-06-01T11:59:00;8.30;;;5.35;;
42096;SDS011;27754;45.414;11.084;2023-06-01T12:01:29;6.57;;;5.13;;
42096;SDS011;27754;45.414;11.084;2023-06-01T12:03:55;7.35;;;5.35;;
42096;SDS011;27754;45.414;11.084;2023-06-01T12:06:24;8.30;;;5.55;;
42096;SDS011;27754;45.414;11.084;2023-06-01T12:08:52;8.13;;;5.90;;
42096;SDS011;27754;45.414;11.084;2023-06-01T12:11:26;8.68;;;6.13;;
42096;SDS011;27754;45.414;11.084;2023-06-01T12:13:54;6.95;;;5.93;;
42096;SDS011;27754;45.414;11.084;2023-06-01T12:16:22;7.57;;;5.47;;
42096;SDS011;27754;45.414;11.084;2023-06-01T12:18:49;6.78;;;5.15;;
42096;SDS011;27754;45.414;11.084;2023-06-01T12:21:16;9.32;;;6.05;;
42096;SDS011;27754;45.414;11.084;2023-06-01T12:23:50;18.83;;;5.88;;
42096;SDS011;27754;45.414;11.084;2023-06-01T12:26:19;8.40;;;5.80;;
42096;SDS011;27754;45.414;11.084;2023-06-01T12:28:53;8.85;;;5.30;;
42096;SDS011;27754;45.414;11.084;2023-06-01T12:31:25;8.25;;;5.15;;
42096;SDS011;27754;45.414;11.084;2023-06-01T12:33:52;7.03;;;5.35;;
42096;SDS011;27754;45.414;11.084;2023-06-01T12:36:32;9.48;;;5.75;;
42096;SDS011;27754;45.414;11.084;2023-06-01T12:39:01;6.95;;;5.53;;
42096;SDS011;27754;45.414;11.084;2023-06-01T12:41:32;8.85;;;5.88;;
42096;SDS011;27754;45.414;11.084;2023-06-01T12:43:59;8.57;;;5.15;;
42096;SDS011;27754;45.414;11.084;2023-06-01T12:46:27;9.07;;;5.72;;
42096;SDS011;27754;45.414;11.084;2023-06-01T12:49:12;7.35;;;4.95;;
42096;SDS011;27754;45.414;11.084;2023-06-01T12:51:46;9.25;;;5.30;;
42096;SDS011;27754;45.414;11.084;2023-06-01T12:54:13;6.70;;;5.45;;
42096;SDS011;27754;45.414;11.084;2023-06-01T12:56:40;7.40;;;4.90;;
42096;SDS011;27754;45.414;11.084;2023-06-01T12:59:07;10.25;;;6.10;;
42096;SDS011;27754;45.414;11.084;2023-06-01T13:01:34;10.10;;;6.05;;
42096;SDS011;27754;45.414;11.084;2023-06-01T13:04:02;15.63;;;5.78;;
42096;SDS011;27754;45.414;11.084;2023-06-01T13:06:31;8.90;;;5.13;;
42096;SDS011;27754;45.414;11.084;2023-06-01T13:21:53;10.27;;;5.45;;
42096;SDS011;27754;45.414;11.084;2023-06-01T13:24:20;10.60;;;6.25;;
42096;SDS011;27754;45.414;11.084;2023-06-01T13:26:48;11.63;;;6.03;;
42096;SDS011;27754;45.414;11.084;2023-06-01T13:29:15;8.55;;;5.55;;
42096;SDS011;27754;45.414;11.084;2023-06-01T13:31:42;8.05;;;5.43;;
42096;SDS011;27754;45.414;11.084;2023-06-01T13:34:09;7.35;;;5.28;;
42096;SDS011;27754;45.414;11.084;2023-06-01T13:36:37;9.90;;;5.32;;
42096;SDS011;27754;45.414;11.084;2023-06-01T13:39:03;11.27;;;5.72;;
42096;SDS011;27754;45.414;11.084;2023-06-01T13:41:30;11.32;;;5.47;;
42096;SDS011;27754;45.414;11.084;2023-06-01T13:43:57;14.00;;;5.60;;
42096;SDS011;27754;45.414;11.084;2023-06-01T13:46:24;7.40;;;5.32;;
42096;SDS011;27754;45.414;11.084;2023-06-01T13:48:52;7.32;;;5.75;;
42096;SDS011;27754;45.414;11.084;2023-06-01T13:51:19;7.88;;;5.53;;
42096;SDS011;27754;45.414;11.084;2023-06-01T13:53:49;7.68;;;5.20;;
42096;SDS011;27754;45.414;11.084;2023-06-01T13:56:16;9.40;;;5.55;;
42096;SDS011;27754;45.414;11.084;2023-06-01T13:58:42;7.80;;;5.45;;
42096;SDS011;27754;45.414;11.084;2023-06-01T14:01:09;8.82;;;5.30;;
42096;SDS011;27754;45.414;11.084;2023-06-01T14:03:37;12.15;;;5.93;;
42096;SDS011;27754;45.414;11.084;2023-06-01T14:06:05;10.80;;;5.47;;
42096;SDS011;27754;45.414;11.084;2023-06-01T14:08:32;12.82;;;4.85;;
42096;SDS011;27754;45.414;11.084;2023-06-01T14:10:59;12.48;;;6.05;;
42096;SDS011;27754;45.414;11.084;2023-06-01T14:13:27;6.95;;;5.55;;
42096;SDS011;27754;45.414;11.084;2023-06-01T14:15:54;9.05;;;5.43;;
42096;SDS011;27754;45.414;11.084;2023-06-01T14:18:21;9.13;;;6.07;;
42096;SDS011;27754;45.414;11.084;2023-06-01T14:20:48;6.60;;;5.05;;
42096;SDS011;27754;45.414;11.084;2023-06-01T14:23:16;9.50;;;5.93;;
42096;SDS011;27754;45.414;11.084;2023-06-01T14:25:43;10.15;;;5.63;;
42096;SDS011;27754;45.414;11.084;2023-06-01T14:28:11;7.53;;;5.18;;
42096;SDS011;27754;45.414;11.084;2023-06-01T14:30:38;7.18;;;5.28;;
42096;SDS011;27754;45.414;11.084;2023-06-01T14:33:05;12.63;;;5.25;;
42096;SDS011;27754;45.414;11.084;2023-06-01T14:35:32;6.68;;;4.93;;
42096;SDS011;27754;45.414;11.084;2023-06-01T14:38:00;10.50;;;5.40;;
42096;SDS011;27754;45.414;11.084;2023-06-01T14:40:27;10.48;;;6.28;;
42096;SDS011;27754;45.414;11.084;2023-06-01T14:42:54;7.80;;;5.55;;
42096;SDS011;27754;45.414;11.084;2023-06-01T14:45:21;8.50;;;5.53;;
42096;SDS011;27754;45.414;11.084;2023-06-01T14:47:49;8.50;;;5.68;;
42096;SDS011;27754;45.414;11.084;2023-06-01T14:50:17;7.35;;;5.47;;
42096;SDS011;27754;45.414;11.084;2023-06-01T14:52:45;9.35;;;5.68;;
42096;SDS011;27754;45.414;11.084;2023-06-01T14:55:12;12.07;;;5.82;;
42096;SDS011;27754;45.414;11.084;2023-06-01T14:57:40;12.85;;;6.35;;
42096;SDS011;27754;45.414;11.084;2023-06-01T15:00:08;7.07;;;5.35;;
42096;SDS011;27754;45.414;11.084;2023-06-01T15:02:37;11.25;;;5.15;;
42096;SDS011;27754;45.414;11.084;2023-06-01T15:05:04;8.02;;;5.32;;
42096;SDS011;27754;45.414;11.084;2023-06-01T15:07:31;12.15;;;5.55;;
42096;SDS011;27754;45.414;11.084;2023-06-01T15:09:58;10.13;;;5.28;;
42096;SDS011;27754;45.414;11.084;2023-06-01T15:12:25;8.75;;;5.15;;
42096;SDS011;27754;45.414;11.084;2023-06-01T15:14:52;10.65;;;5.53;;
42096;SDS011;27754;45.414;11.084;2023-06-01T15:17:19;8.30;;;5.32;;
42096;SDS011;27754;45.414;11.084;2023-06-01T15:19:46;8.52;;;5.65;;
42096;SDS011;27754;45.414;11.084;2023-06-01T15:22:13;11.15;;;8.00;;
42096;SDS011;27754;45.414;11.084;2023-06-01T15:24:41;11.45;;;6.72;;
42096;SDS011;27754;45.414;11.084;2023-06-01T15:27:08;16.65;;;8.43;;
42096;SDS011;27754;45.414;11.084;2023-06-01T15:29:35;20.48;;;10.82;;
42096;SDS011;27754;45.414;11.084;2023-06-01T15:32:02;10.20;;;5.80;;
42096;SDS011;27754;45.414;11.084;2023-06-01T15:34:30;9.27;;;5.47;;
42096;SDS011;27754;45.414;11.084;2023-06-01T15:36:57;11.40;;;6.53;;